Time;durP1;ratioP1;P1;durP2;ratioP2;P2;SDS_P1;SDS_P2;PMS_P1;PMS_P2;Temp;Humidity;BMP_temperature;BMP_pressure;BME280_temperature;BME280_humidity;BME280_pressure;Samples;Min_cycle;Max_cycle;Signal;HPM_P1;HPM_P2
2023/08/11 00:00:08;;;;;;;2.60;1.17;;;;;;;;;;5070279;28;20748;-69
2023/08/11 00:02:36;;;;;;;3.40;1.60;;;;;;;;;;5066243;28;20554;-69
2023/08/11 00:05:04;;;;;;;2.90;1.30;;;;;;;;;;5073733;28;20449;-69
2023/08/11 00:07:34;;;;;;;2.80;1.50;;;;;;;;;;5073988;28;20457;-67
2023/08/11 00:10:01;;;;;;;2.40;1.23;;;;;;;;;;5074289;28;20441;-69
2023/08/11 00:12:28;;;;;;;3.33;1.57;;;;;;;;;;5075223;28;20460;-69
2023/08/11 00:14:55;;;;;;;5.20;2.33;;;;;;;;;;5075769;28;20430;-69
2023/08/11 00:17:22;;;;;;;4.37;1.30;;;;;;;;;;5072532;28;20484;-69
2023/08/11 00:19:49;;;;;;;2.93;1.60;;;;;;;;;;5068737;28;20457;-69
2023/08/11 00:22:17;;;;;;;3.87;1.77;;;;;;;;;;5070952;28;20876;-68
2023/08/11 00:24:45;;;;;;;3.00;1.43;;;;;;;;;;5070472;28;20457;-70
2023/08/11 00:27:13;;;;;;;4.23;1.90;;;;;;;;;;5070943;28;20450;-68
2023/08/11 00:29:40;;;;;;;3.67;1.90;;;;;;;;;;5071202;28;20465;-69
2023/08/11 00:32:09;;;;;;;3.80;1.67;;;;;;;;;;5069056;28;20513;-67
2023/08/11 00:34:36;;;;;;;3.07;1.70;;;;;;;;;;5070746;28;20438;-69
2023/08/11 00:37:04;;;;;;;2.60;1.57;;;;;;;;;;5069150;28;20460;-69
2023/08/11 00:39:31;;;;;;;2.87;1.40;;;;;;;;;;5073356;28;20454;-69
2023/08/11 00:41:59;;;;;;;7.10;2.73;;;;;;;;;;5069350;28;20476;-69
2023/08/11 00:44:27;;;;;;;3.50;2.00;;;;;;;;;;5073869;28;20434;-69
2023/08/11 00:46:54;;;;;;;3.57;2.63;;;;;;;;;;5071133;28;20896;-69
2023/08/11 00:49:21;;;;;;;2.20;1.10;;;;;;;;;;5067022;28;20457;-69
2023/08/11 00:51:48;;;;;;;4.47;2.00;;;;;;;;;;5073480;28;20475;-69
2023/08/11 00:54:17;;;;;;;3.67;2.00;;;;;;;;;;5072448;28;20487;-69
2023/08/11 00:56:44;;;;;;;2.43;1.27;;;;;;;;;;5069041;28;20558;-69
2023/08/11 00:59:16;;;;;;;3.03;2.00;;;;;;;;;;5071396;28;20485;-68
2023/08/11 01:01:43;;;;;;;3.23;1.60;;;;;;;;;;5070003;28;20492;-69
2023/08/11 01:04:10;;;;;;;2.97;1.50;;;;;;;;;;5071875;28;20457;-69
2023/08/11 01:06:41;;;;;;;3.03;1.37;;;;;;;;;;5070998;28;20461;-69
2023/08/11 01:09:12;;;;;;;2.20;1.63;;;;;;;;;;5069938;28;20453;-69
2023/08/11 01:11:43;;;;;;;2.20;1.30;;;;;;;;;;5087797;28;20475;-69
2023/08/11 01:14:17;;;;;;;2.47;1.57;;;;;;;;;;5089188;28;20471;-69
2023/08/11 01:16:45;;;;;;;2.73;1.60;;;;;;;;;;5088859;28;20433;-69
2023/08/11 01:19:14;;;;;;;2.80;1.83;;;;;;;;;;5082060;28;20469;-68
2023/08/11 01:21:42;;;;;;;2.90;1.50;;;;;;;;;;5069392;28;20517;-69
2023/08/11 01:24:13;;;;;;;5.30;1.50;;;;;;;;;;5070168;28;20952;-68
2023/08/11 01:26:40;;;;;;;2.10;1.10;;;;;;;;;;5066910;28;20456;-69
2023/08/11 01:29:07;;;;;;;2.70;1.40;;;;;;;;;;5070807;28;20811;-68
2023/08/11 01:31:34;;;;;;;3.10;1.80;;;;;;;;;;5069371;28;20476;-68
2023/08/11 01:34:01;;;;;;;2.17;1.60;;;;;;;;;;5066120;28;20457;-68
2023/08/11 01:36:28;;;;;;;4.43;1.40;;;;;;;;;;5068098;28;20457;-68
2023/08/11 01:38:55;;;;;;;3.23;1.60;;;;;;;;;;5069248;28;20496;-69
2023/08/11 01:41:23;;;;;;;2.63;1.70;;;;;;;;;;5066345;28;20483;-68
2023/08/11 01:43:52;;;;;;;2.87;1.53;;;;;;;;;;5070948;28;20494;-68
2023/08/11 01:46:19;;;;;;;4.03;1.80;;;;;;;;;;5069747;28;20457;-69
2023/08/11 01:48:47;;;;;;;2.00;1.50;;;;;;;;;;5064729;28;20552;-68
2023/08/11 01:51:14;;;;;;;4.67;1.60;;;;;;;;;;5065487;28;20457;-68
2023/08/11 01:53:42;;;;;;;2.80;1.93;;;;;;;;;;5064941;28;20464;-68
2023/08/11 01:56:10;;;;;;;2.10;1.40;;;;;;;;;;5071190;28;20453;-68
2023/08/11 01:58:40;;;;;;;4.80;1.67;;;;;;;;;;5067986;28;20505;-68
2023/08/11 02:01:07;;;;;;;3.20;1.90;;;;;;;;;;5061886;28;20457;-68
2023/08/11 02:03:34;;;;;;;4.57;1.67;;;;;;;;;;5070416;28;20505;-69
2023/08/11 02:06:01;;;;;;;3.33;1.40;;;;;;;;;;5067854;28;20458;-69
2023/08/11 02:08:28;;;;;;;2.50;1.60;;;;;;;;;;5068337;28;20453;-69
2023/08/11 02:10:55;;;;;;;2.67;1.47;;;;;;;;;;5064353;28;20457;-69
2023/08/11 02:13:22;;;;;;;2.60;1.80;;;;;;;;;;5071275;28;20469;-69
2023/08/11 02:15:51;;;;;;;2.50;1.60;;;;;;;;;;5072459;28;20461;-69
2023/08/11 02:18:18;;;;;;;3.13;2.03;;;;;;;;;;5068723;28;20476;-67
2023/08/11 02:20:46;;;;;;;2.83;2.13;;;;;;;;;;5069963;28;20556;-69
2023/08/11 02:23:13;;;;;;;3.90;1.97;;;;;;;;;;5064706;28;20843;-69
2023/08/11 02:25:40;;;;;;;3.30;1.70;;;;;;;;;;5065626;28;20456;-69
2023/08/11 02:28:08;;;;;;;4.07;1.63;;;;;;;;;;5067487;28;20458;-69
2023/08/11 02:30:35;;;;;;;4.53;1.63;;;;;;;;;;5068671;28;21008;-67
2023/08/11 02:33:04;;;;;;;3.00;1.80;;;;;;;;;;5070247;28;20552;-68
2023/08/11 02:35:31;;;;;;;2.90;1.50;;;;;;;;;;5069639;28;20452;-69
2023/08/11 02:37:58;;;;;;;2.53;1.47;;;;;;;;;;5066447;28;20832;-69
2023/08/11 02:40:26;;;;;;;3.50;1.83;;;;;;;;;;5066557;28;21002;-68
2023/08/11 02:42:54;;;;;;;2.93;1.80;;;;;;;;;;5066441;28;20488;-69
2023/08/11 02:45:21;;;;;;;3.97;1.70;;;;;;;;;;5065676;28;20460;-69
2023/08/11 02:47:48;;;;;;;3.63;1.80;;;;;;;;;;5071127;28;20458;-68
2023/08/11 02:50:17;;;;;;;2.10;1.50;;;;;;;;;;5068678;28;20445;-68
2023/08/11 02:52:44;;;;;;;3.23;1.63;;;;;;;;;;5067975;28;20898;-68
2023/08/11 02:55:12;;;;;;;2.27;1.20;;;;;;;;;;5065282;28;20460;-68
2023/08/11 02:57:39;;;;;;;2.90;1.90;;;;;;;;;;5072837;28;20465;-68
2023/08/11 03:00:12;;;;;;;2.73;1.37;;;;;;;;;;5070697;28;20481;-68
2023/08/11 03:02:39;;;;;;;3.10;1.83;;;;;;;;;;5067557;28;20473;-68
2023/08/11 03:05:07;;;;;;;3.80;1.60;;;;;;;;;;5069813;28;20464;-68
2023/08/11 03:07:36;;;;;;;1.97;1.53;;;;;;;;;;5067158;28;20457;-69
2023/08/11 03:10:03;;;;;;;2.30;1.30;;;;;;;;;;5066069;28;20965;-68
2023/08/11 03:12:30;;;;;;;3.10;1.63;;;;;;;;;;5067326;28;20564;-68
2023/08/11 03:14:58;;;;;;;3.27;2.00;;;;;;;;;;5068856;28;20975;-69
2023/08/11 03:17:26;;;;;;;2.93;1.47;;;;;;;;;;5069943;28;20452;-68
2023/08/11 03:19:53;;;;;;;2.60;1.50;;;;;;;;;;5067953;28;20473;-68
2023/08/11 03:22:20;;;;;;;2.57;1.70;;;;;;;;;;5070944;28;20480;-69
2023/08/11 03:24:49;;;;;;;3.00;1.83;;;;;;;;;;5066802;28;20457;-68
2023/08/11 03:27:16;;;;;;;2.60;1.40;;;;;;;;;;5071340;28;20540;-68
2023/08/11 03:29:43;;;;;;;2.13;1.37;;;;;;;;;;5071047;28;20453;-69
2023/08/11 03:32:10;;;;;;;5.53;1.67;;;;;;;;;;5067737;28;20473;-68
2023/08/11 03:34:37;;;;;;;2.57;1.83;;;;;;;;;;5068136;28;20832;-69
2023/08/11 03:37:06;;;;;;;2.50;1.43;;;;;;;;;;5070610;28;20456;-69
2023/08/11 03:39:33;;;;;;;3.20;1.93;;;;;;;;;;5071832;28;20540;-68
2023/08/11 03:42:02;;;;;;;2.27;1.30;;;;;;;;;;5071740;28;20477;-68
2023/08/11 03:44:29;;;;;;;2.50;2.10;;;;;;;;;;5072129;28;20461;-68
2023/08/11 03:46:56;;;;;;;2.50;1.23;;;;;;;;;;5070461;28;20461;-69
2023/08/11 03:49:23;;;;;;;2.67;1.10;;;;;;;;;;5074505;28;20445;-68
2023/08/11 03:51:51;;;;;;;2.80;1.83;;;;;;;;;;5072206;28;20480;-68
2023/08/11 03:54:18;;;;;;;4.10;1.70;;;;;;;;;;5072352;28;20457;-68
2023/08/11 03:56:45;;;;;;;2.60;1.73;;;;;;;;;;5069404;28;20458;-69
2023/08/11 03:59:13;;;;;;;2.33;1.40;;;;;;;;;;5073410;28;20488;-68
2023/08/11 04:01:40;;;;;;;6.70;2.63;;;;;;;;;;5072371;28;20477;-68
2023/08/11 04:04:07;;;;;;;2.53;1.70;;;;;;;;;;5072067;28;20536;-69
2023/08/11 04:06:35;;;;;;;3.53;2.90;;;;;;;;;;5071854;28;20453;-68
2023/08/11 04:09:04;;;;;;;2.60;1.73;;;;;;;;;;5068284;28;20544;-69
2023/08/11 04:11:32;;;;;;;2.47;1.50;;;;;;;;;;5069861;28;20528;-69
2023/08/11 04:14:00;;;;;;;3.00;1.73;;;;;;;;;;5070613;28;20463;-69
2023/08/11 04:16:28;;;;;;;3.10;2.13;;;;;;;;;;5067680;28;20506;-68
2023/08/11 04:18:55;;;;;;;3.10;2.10;;;;;;;;;;5072050;28;20477;-69
2023/08/11 04:21:23;;;;;;;4.30;1.43;;;;;;;;;;5072499;28;20507;-69
2023/08/11 04:23:51;;;;;;;2.27;1.40;;;;;;;;;;5071557;28;20450;-68
2023/08/11 04:26:18;;;;;;;3.20;1.40;;;;;;;;;;5065832;28;20459;-69
2023/08/11 04:28:45;;;;;;;3.50;1.93;;;;;;;;;;5070467;28;20541;-68
2023/08/11 04:31:13;;;;;;;7.30;1.70;;;;;;;;;;5072462;28;20460;-68
2023/08/11 04:33:41;;;;;;;4.00;2.00;;;;;;;;;;5074676;28;20445;-68
2023/08/11 04:36:08;;;;;;;2.50;1.53;;;;;;;;;;5075951;28;20503;-68
2023/08/11 04:38:35;;;;;;;2.90;2.03;;;;;;;;;;5068371;28;20466;-68
2023/08/11 04:41:02;;;;;;;4.10;1.70;;;;;;;;;;5071125;28;20822;-68
2023/08/11 04:43:30;;;;;;;2.40;1.37;;;;;;;;;;5072365;28;20457;-69
2023/08/11 04:45:57;;;;;;;3.83;1.93;;;;;;;;;;5069545;28;20821;-68
2023/08/11 04:48:24;;;;;;;6.90;2.10;;;;;;;;;;5071189;28;20540;-68
2023/08/11 04:50:53;;;;;;;2.83;1.67;;;;;;;;;;5069780;28;20467;-68
2023/08/11 04:53:21;;;;;;;2.03;1.23;;;;;;;;;;5067831;28;20483;-68
2023/08/11 04:55:48;;;;;;;2.40;1.73;;;;;;;;;;5070674;28;20483;-68
2023/08/11 04:58:15;;;;;;;2.83;1.50;;;;;;;;;;5071136;28;21027;-68
2023/08/11 05:00:43;;;;;;;3.90;2.10;;;;;;;;;;5069791;28;20484;-67
2023/08/11 05:03:10;;;;;;;2.80;1.77;;;;;;;;;;5068991;28;20473;-68
2023/08/11 05:05:37;;;;;;;4.70;1.90;;;;;;;;;;5067888;28;20472;-68
2023/08/11 05:08:06;;;;;;;3.53;1.50;;;;;;;;;;5070538;28;20971;-68
2023/08/11 05:10:33;;;;;;;4.23;1.60;;;;;;;;;;5071180;28;20457;-67
2023/08/11 05:13:00;;;;;;;2.50;1.67;;;;;;;;;;5071866;28;20516;-69
2023/08/11 05:15:28;;;;;;;2.50;1.50;;;;;;;;;;5068507;28;20467;-67
2023/08/11 05:17:56;;;;;;;4.43;1.93;;;;;;;;;;5064828;28;20445;-67
2023/08/11 05:20:23;;;;;;;2.80;1.83;;;;;;;;;;5074047;28;20477;-68
2023/08/11 05:22:52;;;;;;;3.53;1.97;;;;;;;;;;5070235;28;20469;-67
2023/08/11 05:25:20;;;;;;;2.43;1.20;;;;;;;;;;5072175;28;20557;-67
2023/08/11 05:27:48;;;;;;;8.57;1.93;;;;;;;;;;5069307;28;20509;-68
2023/08/11 05:30:15;;;;;;;3.03;1.70;;;;;;;;;;5069659;28;20446;-67
2023/08/11 05:32:42;;;;;;;3.73;1.87;;;;;;;;;;5066198;28;20472;-68
2023/08/11 05:35:12;;;;;;;3.40;2.07;;;;;;;;;;5072814;28;20465;-68
2023/08/11 05:37:39;;;;;;;2.53;2.20;;;;;;;;;;5080721;28;20453;-68
2023/08/11 05:40:08;;;;;;;4.97;2.90;;;;;;;;;;5079226;28;20471;-67
2023/08/11 05:42:37;;;;;;;2.80;1.87;;;;;;;;;;5078601;28;20473;-68
2023/08/11 05:45:05;;;;;;;3.60;1.60;;;;;;;;;;5085589;28;20457;-67
2023/08/11 05:47:32;;;;;;;6.43;2.20;;;;;;;;;;5074931;28;20514;-69
2023/08/11 05:49:59;;;;;;;4.93;2.23;;;;;;;;;;5071287;28;20456;-68
2023/08/11 05:52:26;;;;;;;3.40;1.70;;;;;;;;;;5074936;28;20448;-68
2023/08/11 05:54:53;;;;;;;3.03;1.83;;;;;;;;;;5067302;28;20451;-68
2023/08/11 05:57:20;;;;;;;4.23;1.67;;;;;;;;;;5068202;28;20450;-68
2023/08/11 05:59:48;;;;;;;2.50;1.63;;;;;;;;;;5064306;28;20483;-67
2023/08/11 06:02:15;;;;;;;3.20;2.03;;;;;;;;;;5062574;28;20711;-68
2023/08/11 06:04:44;;;;;;;4.73;2.00;;;;;;;;;;5070828;28;20450;-68
2023/08/11 06:07:11;;;;;;;4.13;2.20;;;;;;;;;;5069339;28;20459;-68
2023/08/11 06:09:39;;;;;;;3.57;2.30;;;;;;;;;;5072831;28;20810;-68
2023/08/11 06:12:06;;;;;;;3.00;1.80;;;;;;;;;;5072466;28;20500;-68
2023/08/11 06:14:33;;;;;;;4.93;2.50;;;;;;;;;;5073073;28;20448;-68
2023/08/11 06:17:02;;;;;;;2.97;1.77;;;;;;;;;;5072294;28;20540;-68
2023/08/11 06:19:29;;;;;;;2.67;2.00;;;;;;;;;;5069291;28;20486;-68
2023/08/11 06:21:57;;;;;;;2.57;1.70;;;;;;;;;;5069249;28;20465;-68
2023/08/11 06:24:24;;;;;;;2.50;1.70;;;;;;;;;;5071535;28;20454;-68
2023/08/11 06:26:52;;;;;;;3.70;2.40;;;;;;;;;;5069785;28;20625;-68
2023/08/11 06:29:19;;;;;;;3.27;1.87;;;;;;;;;;5071534;28;20448;-68
2023/08/11 06:31:47;;;;;;;5.00;2.03;;;;;;;;;;5067155;28;20561;-68
2023/08/11 06:34:17;;;;;;;3.07;2.10;;;;;;;;;;5067036;28;20476;-68
2023/08/11 06:36:45;;;;;;;3.80;2.50;;;;;;;;;;5068220;28;20464;-68
2023/08/11 06:39:12;;;;;;;3.00;1.70;;;;;;;;;;5068029;28;20449;-69
2023/08/11 06:41:40;;;;;;;3.23;1.53;;;;;;;;;;5072082;28;20473;-68
2023/08/11 06:44:09;;;;;;;2.83;1.53;;;;;;;;;;5073527;28;20444;-68
2023/08/11 06:46:36;;;;;;;2.60;1.87;;;;;;;;;;5071399;28;20456;-68
2023/08/11 06:49:03;;;;;;;2.73;1.60;;;;;;;;;;5068246;28;20469;-67
2023/08/11 06:51:31;;;;;;;3.70;2.13;;;;;;;;;;5063205;28;20835;-68
2023/08/11 06:53:59;;;;;;;3.20;1.83;;;;;;;;;;5069084;28;20962;-68
2023/08/11 06:56:26;;;;;;;2.40;1.67;;;;;;;;;;5071545;28;20457;-69
2023/08/11 06:58:53;;;;;;;5.00;2.10;;;;;;;;;;5070224;28;20457;-68
2023/08/11 07:01:20;;;;;;;2.10;1.30;;;;;;;;;;5067695;28;21964;-68
2023/08/11 07:03:47;;;;;;;2.30;1.33;;;;;;;;;;5071419;28;20528;-68
2023/08/11 07:06:14;;;;;;;2.63;1.87;;;;;;;;;;5070758;28;20446;-68
2023/08/11 07:08:43;;;;;;;7.60;2.10;;;;;;;;;;5070644;28;20846;-68
2023/08/11 07:11:10;;;;;;;3.47;1.90;;;;;;;;;;5073163;28;20445;-68
2023/08/11 07:13:37;;;;;;;3.97;1.80;;;;;;;;;;5071906;28;20834;-68
2023/08/11 07:16:04;;;;;;;3.40;2.07;;;;;;;;;;5075395;28;20443;-68
2023/08/11 07:18:31;;;;;;;2.90;2.20;;;;;;;;;;5073033;28;20460;-69
2023/08/11 07:20:58;;;;;;;4.57;2.13;;;;;;;;;;5074832;28;21010;-68
2023/08/11 07:23:28;;;;;;;3.07;2.20;;;;;;;;;;5075220;28;20433;-69
2023/08/11 07:25:56;;;;;;;3.00;1.93;;;;;;;;;;5069506;28;20443;-67
2023/08/11 07:28:24;;;;;;;4.90;2.40;;;;;;;;;;5069204;28;20468;-68
2023/08/11 07:30:51;;;;;;;2.90;2.30;;;;;;;;;;5070571;28;20438;-70
2023/08/11 07:33:18;;;;;;;2.80;2.07;;;;;;;;;;5072714;28;20473;-68
2023/08/11 07:35:45;;;;;;;3.97;2.70;;;;;;;;;;5073706;28;20450;-68
2023/08/11 07:38:12;;;;;;;6.73;2.40;;;;;;;;;;5072511;28;20809;-68
2023/08/11 07:40:40;;;;;;;5.53;3.00;;;;;;;;;;5067101;28;20477;-67
2023/08/11 07:43:08;;;;;;;4.37;2.77;;;;;;;;;;5071881;28;20566;-67
2023/08/11 07:45:36;;;;;;;3.30;2.10;;;;;;;;;;5071646;28;20928;-68
2023/08/11 07:48:03;;;;;;;5.13;2.90;;;;;;;;;;5074947;28;20457;-68
2023/08/11 07:50:30;;;;;;;3.10;2.17;;;;;;;;;;5078573;28;20440;-68
2023/08/11 07:52:57;;;;;;;3.83;2.23;;;;;;;;;;5074783;28;20445;-68
2023/08/11 07:55:26;;;;;;;6.57;2.53;;;;;;;;;;5071488;28;20437;-68
2023/08/11 07:57:53;;;;;;;6.27;3.03;;;;;;;;;;5073899;28;20434;-68
2023/08/11 08:00:24;;;;;;;5.20;3.03;;;;;;;;;;5074622;28;20472;-68
2023/08/11 08:02:52;;;;;;;4.67;2.73;;;;;;;;;;5076140;28;20855;-68
2023/08/11 08:05:19;;;;;;;4.70;3.63;;;;;;;;;;5075444;28;20451;-68
2023/08/11 08:07:46;;;;;;;4.20;2.87;;;;;;;;;;5116005;22;20994;-67
2023/08/11 08:10:14;;;;;;;3.50;2.17;;;;;;;;;;5052831;28;20775;-68
2023/08/11 08:12:45;;;;;;;3.73;2.43;;;;;;;;;;5051085;28;20470;-67
2023/08/11 08:15:12;;;;;;;4.00;2.93;;;;;;;;;;5053762;28;20469;-66
2023/08/11 08:17:41;;;;;;;3.13;1.93;;;;;;;;;;5051259;28;20457;-67
2023/08/11 08:20:09;;;;;;;3.23;2.10;;;;;;;;;;5052973;28;20474;-68
2023/08/11 08:22:36;;;;;;;3.97;3.20;;;;;;;;;;5052153;28;20458;-67
2023/08/11 08:25:06;;;;;;;4.90;3.30;;;;;;;;;;5054015;28;20541;-68
2023/08/11 08:27:33;;;;;;;3.70;2.23;;;;;;;;;;5052373;28;20458;-68
2023/08/11 08:30:00;;;;;;;4.47;3.00;;;;;;;;;;5052460;28;20506;-67
2023/08/11 08:32:29;;;;;;;4.77;2.63;;;;;;;;;;5052829;28;20831;-67
2023/08/11 08:34:57;;;;;;;4.90;2.73;;;;;;;;;;5052577;28;20452;-67
2023/08/11 08:37:28;;;;;;;4.40;2.67;;;;;;;;;;5052734;28;20458;-67
2023/08/11 08:39:55;;;;;;;3.23;1.90;;;;;;;;;;5049650;28;20804;-67
2023/08/11 08:42:23;;;;;;;2.93;2.17;;;;;;;;;;5051566;28;20481;-67
2023/08/11 08:44:51;;;;;;;3.40;2.43;;;;;;;;;;5052779;28;20441;-68
2023/08/11 08:47:19;;;;;;;4.10;2.50;;;;;;;;;;5051858;28;20446;-67
2023/08/11 08:49:46;;;;;;;3.40;2.53;;;;;;;;;;5049791;28;20446;-67
2023/08/11 08:52:15;;;;;;;6.33;2.43;;;;;;;;;;5052752;28;20717;-68
2023/08/11 08:54:42;;;;;;;2.97;2.07;;;;;;;;;;5052098;28;20438;-67
2023/08/11 08:57:10;;;;;;;5.40;1.93;;;;;;;;;;5051417;28;20474;-67
2023/08/11 08:59:37;;;;;;;2.67;2.03;;;;;;;;;;5049892;28;20884;-68
2023/08/11 09:02:06;;;;;;;2.50;1.80;;;;;;;;;;5052108;28;21007;-68
2023/08/11 09:04:33;;;;;;;4.17;1.93;;;;;;;;;;5052262;28;20445;-67
2023/08/11 09:07:00;;;;;;;4.07;2.30;;;;;;;;;;5051778;28;20470;-68
2023/08/11 09:09:29;;;;;;;3.70;2.27;;;;;;;;;;5049474;28;20446;-67
2023/08/11 09:11:56;;;;;;;2.70;1.90;;;;;;;;;;5051354;28;20466;-67
2023/08/11 09:14:24;;;;;;;4.03;2.23;;;;;;;;;;5051974;28;20458;-67
2023/08/11 09:16:51;;;;;;;4.97;2.63;;;;;;;;;;5051712;28;20462;-67
2023/08/11 09:19:20;;;;;;;2.47;2.03;;;;;;;;;;5051310;28;20870;-67
2023/08/11 09:21:48;;;;;;;2.60;1.73;;;;;;;;;;5052524;28;20928;-67
2023/08/11 09:24:17;;;;;;;4.10;2.50;;;;;;;;;;5052457;28;20456;-67
2023/08/11 09:26:49;;;;;;;4.70;2.17;;;;;;;;;;5049443;28;20465;-67
2023/08/11 09:29:17;;;;;;;3.67;2.30;;;;;;;;;;5050013;28;20570;-67
2023/08/11 09:31:47;;;;;;;4.40;2.57;;;;;;;;;;5051381;28;20549;-66
2023/08/11 09:34:15;;;;;;;3.43;2.50;;;;;;;;;;5049439;28;20438;-67
2023/08/11 09:36:43;;;;;;;2.80;1.93;;;;;;;;;;5050423;28;20454;-68
2023/08/11 09:39:10;;;;;;;4.10;2.37;;;;;;;;;;5052574;28;20450;-68
2023/08/11 09:41:41;;;;;;;3.57;2.33;;;;;;;;;;5049722;28;20478;-68
2023/08/11 09:44:10;;;;;;;2.77;1.87;;;;;;;;;;5051977;28;20865;-67
2023/08/11 09:46:37;;;;;;;3.93;2.07;;;;;;;;;;5050664;28;20465;-67
2023/08/11 09:49:05;;;;;;;3.33;2.10;;;;;;;;;;5050806;28;20446;-67
2023/08/11 09:51:33;;;;;;;2.43;1.90;;;;;;;;;;5051063;28;20498;-68
2023/08/11 09:54:02;;;;;;;2.70;2.03;;;;;;;;;;5051732;28;20986;-69
2023/08/11 09:56:31;;;;;;;2.93;2.10;;;;;;;;;;5049975;28;20462;-67
2023/08/11 09:58:58;;;;;;;3.50;2.60;;;;;;;;;;5051754;28;20496;-68
2023/08/11 10:01:27;;;;;;;2.70;2.13;;;;;;;;;;5050780;28;20562;-68
2023/08/11 10:03:56;;;;;;;3.53;2.37;;;;;;;;;;5031134;28;20530;-68
2023/08/11 10:06:28;;;;;;;2.80;1.97;;;;;;;;;;5051631;28;20454;-68
2023/08/11 10:08:59;;;;;;;2.83;2.13;;;;;;;;;;5050159;28;20422;-68
2023/08/11 10:11:26;;;;;;;3.63;2.13;;;;;;;;;;5049634;28;20470;-68
2023/08/11 10:13:54;;;;;;;2.70;1.87;;;;;;;;;;5052740;28;20441;-68
2023/08/11 10:16:22;;;;;;;3.30;2.33;;;;;;;;;;5049342;28;20441;-68
2023/08/11 10:18:51;;;;;;;4.03;2.97;;;;;;;;;;5051047;28;20443;-70
2023/08/11 10:21:19;;;;;;;3.10;2.20;;;;;;;;;;5051436;28;20496;-68
2023/08/11 10:23:46;;;;;;;4.10;2.63;;;;;;;;;;5049838;28;20557;-69
2023/08/11 10:26:14;;;;;;;2.77;1.80;;;;;;;;;;5048933;28;20463;-68
2023/08/11 10:28:42;;;;;;;2.77;2.13;;;;;;;;;;5049328;28;20461;-68
2023/08/11 10:31:09;;;;;;;2.97;2.20;;;;;;;;;;5050791;28;20464;-68
2023/08/11 10:33:36;;;;;;;3.50;2.27;;;;;;;;;;5050734;28;20462;-68
2023/08/11 10:36:07;;;;;;;3.00;2.20;;;;;;;;;;5049425;28;20446;-69
2023/08/11 10:38:34;;;;;;;3.00;2.30;;;;;;;;;;5050175;28;20489;-68
2023/08/11 10:41:02;;;;;;;3.40;2.20;;;;;;;;;;5050241;28;20473;-68
2023/08/11 10:43:32;;;;;;;2.70;2.10;;;;;;;;;;5049929;28;20466;-68
2023/08/11 10:46:14;;;;;;;2.80;2.10;;;;;;;;;;5049793;28;20540;-68
2023/08/11 10:48:41;;;;;;;2.67;1.70;;;;;;;;;;5049284;28;20453;-68
2023/08/11 10:51:23;;;;;;;3.70;2.50;;;;;;;;;;5051238;28;20453;-68
2023/08/11 10:53:50;;;;;;;2.83;2.07;;;;;;;;;;5049669;28;20551;-68
2023/08/11 10:56:28;;;;;;;4.23;2.47;;;;;;;;;;5049990;28;20460;-69
2023/08/11 10:59:04;;;;;;;3.20;2.07;;;;;;;;;;5048524;28;20516;-69
2023/08/11 11:01:32;;;;;;;2.73;2.27;;;;;;;;;;5049148;28;20477;-69
2023/08/11 11:04:00;;;;;;;2.77;2.10;;;;;;;;;;5050267;28;20489;-68
2023/08/11 11:06:29;;;;;;;3.17;2.30;;;;;;;;;;5049446;28;20466;-68
2023/08/11 11:08:56;;;;;;;2.30;1.80;;;;;;;;;;5050982;28;20442;-68
2023/08/11 11:11:23;;;;;;;3.10;2.20;;;;;;;;;;5049327;28;20545;-68
2023/08/11 11:13:51;;;;;;;4.73;2.30;;;;;;;;;;5049668;28;20796;-68
2023/08/11 11:16:18;;;;;;;3.63;2.50;;;;;;;;;;5032736;28;20541;-70
2023/08/11 11:18:47;;;;;;;3.37;2.43;;;;;;;;;;5048377;28;20457;-68
2023/08/11 11:21:14;;;;;;;5.00;2.43;;;;;;;;;;5051356;28;20983;-68
2023/08/11 11:23:46;;;;;;;3.93;2.50;;;;;;;;;;5030822;28;20462;-67
2023/08/11 11:26:14;;;;;;;3.07;2.23;;;;;;;;;;5049979;28;20429;-68
2023/08/11 11:28:41;;;;;;;2.57;2.17;;;;;;;;;;5046585;28;20464;-68
2023/08/11 11:31:08;;;;;;;3.23;2.77;;;;;;;;;;5048664;28;20495;-68
2023/08/11 11:33:35;;;;;;;3.57;3.00;;;;;;;;;;5048872;28;20484;-68
2023/08/11 11:36:03;;;;;;;5.63;3.60;;;;;;;;;;5049714;28;20446;-68
2023/08/11 11:38:30;;;;;;;3.40;2.13;;;;;;;;;;5050167;28;20433;-67
2023/08/11 11:40:58;;;;;;;3.30;2.80;;;;;;;;;;5049732;28;20480;-68
2023/08/11 11:43:25;;;;;;;3.57;2.20;;;;;;;;;;5048168;28;20477;-68
2023/08/11 11:45:53;;;;;;;3.37;2.47;;;;;;;;;;5049725;28;20445;-68
2023/08/11 11:48:21;;;;;;;3.50;2.60;;;;;;;;;;5049852;28;20461;-69
2023/08/11 11:50:48;;;;;;;2.90;2.20;;;;;;;;;;5049865;28;20445;-66
2023/08/11 11:53:17;;;;;;;3.00;2.63;;;;;;;;;;5048341;28;20473;-67
2023/08/11 11:55:46;;;;;;;4.40;2.93;;;;;;;;;;5050195;28;20892;-67
2023/08/11 11:58:14;;;;;;;4.07;2.97;;;;;;;;;;5051400;28;20484;-67
2023/08/11 12:00:42;;;;;;;4.03;2.50;;;;;;;;;;5052043;28;20544;-67
2023/08/11 12:03:09;;;;;;;3.13;2.30;;;;;;;;;;5052097;28;20508;-68
2023/08/11 12:05:37;;;;;;;2.90;2.43;;;;;;;;;;5053583;28;20195;-68
2023/08/11 12:08:17;;;;;;;5.10;3.20;;;;;;;;;;5052891;28;20207;-68
2023/08/11 12:10:46;;;;;;;3.27;2.63;;;;;;;;;;5053919;28;20500;-68
2023/08/11 12:13:14;;;;;;;3.93;2.97;;;;;;;;;;5052084;28;20216;-68
2023/08/11 12:15:43;;;;;;;4.00;2.50;;;;;;;;;;5053437;28;20195;-68
2023/08/11 12:18:10;;;;;;;3.37;2.50;;;;;;;;;;5053346;28;20221;-68
2023/08/11 12:20:37;;;;;;;5.63;3.20;;;;;;;;;;5052152;28;20195;-68
2023/08/11 12:23:04;;;;;;;4.10;2.30;;;;;;;;;;5052092;28;20682;-68
2023/08/11 12:25:31;;;;;;;3.90;2.60;;;;;;;;;;5053242;28;20649;-68
2023/08/11 12:28:01;;;;;;;2.70;2.17;;;;;;;;;;5051110;28;20515;-67
2023/08/11 12:30:30;;;;;;;3.17;2.40;;;;;;;;;;5053139;28;20583;-67
2023/08/11 12:32:57;;;;;;;5.63;2.80;;;;;;;;;;5048531;28;20215;-68
2023/08/11 12:35:24;;;;;;;3.00;2.70;;;;;;;;;;5054054;28;20461;-68
2023/08/11 12:37:51;;;;;;;3.27;2.43;;;;;;;;;;5053467;28;20445;-68
2023/08/11 12:40:21;;;;;;;2.90;2.30;;;;;;;;;;5052076;28;20234;-68
2023/08/11 12:42:48;;;;;;;3.87;2.60;;;;;;;;;;5049630;28;20764;-68
2023/08/11 12:45:15;;;;;;;3.80;1.90;;;;;;;;;;5052737;28;20650;-68
2023/08/11 12:47:43;;;;;;;3.77;2.10;;;;;;;;;;5052774;28;20204;-68
2023/08/11 12:50:11;;;;;;;3.30;2.37;;;;;;;;;;5051878;28;20565;-68
2023/08/11 12:52:40;;;;;;;3.23;2.30;;;;;;;;;;5051605;28;21436;-68
2023/08/11 12:55:07;;;;;;;2.77;1.93;;;;;;;;;;5052295;28;20278;-68
2023/08/11 12:57:35;;;;;;;3.00;2.50;;;;;;;;;;5050793;28;20192;-68
2023/08/11 13:00:02;;;;;;;2.70;2.10;;;;;;;;;;5051745;28;20199;-68
2023/08/11 13:02:29;;;;;;;2.90;2.20;;;;;;;;;;5051388;28;20314;-68
2023/08/11 13:04:57;;;;;;;3.83;2.23;;;;;;;;;;5052160;28;20206;-68
2023/08/11 13:07:26;;;;;;;3.43;2.60;;;;;;;;;;5049478;28;20214;-67
2023/08/11 13:09:53;;;;;;;3.03;1.97;;;;;;;;;;5051477;28;20202;-68
2023/08/11 13:12:20;;;;;;;2.87;2.10;;;;;;;;;;5049743;28;20215;-67
2023/08/11 13:14:47;;;;;;;3.03;2.20;;;;;;;;;;5050863;28;20547;-67
2023/08/11 13:17:14;;;;;;;3.70;2.70;;;;;;;;;;5052553;28;20241;-67
2023/08/11 13:19:41;;;;;;;3.00;2.30;;;;;;;;;;5053602;28;20204;-67
2023/08/11 13:22:10;;;;;;;3.53;2.65;;;;;;;;;;5051214;28;20223;-67
2023/08/11 13:24:37;;;;;;;3.80;2.60;;;;;;;;;;5050936;28;20541;-67
2023/08/11 13:27:04;;;;;;;2.92;2.13;;;;;;;;;;5050150;28;20292;-67
2023/08/11 13:29:31;;;;;;;2.72;2.00;;;;;;;;;;5050623;28;20658;-67
2023/08/11 13:31:58;;;;;;;3.07;2.40;;;;;;;;;;5051455;28;20218;-67
2023/08/11 13:34:25;;;;;;;2.90;2.35;;;;;;;;;;5050382;28;20202;-67
2023/08/11 13:36:52;;;;;;;3.20;2.38;;;;;;;;;;5049502;28;20219;-68
2023/08/11 13:39:21;;;;;;;3.38;2.30;;;;;;;;;;5051411;28;20635;-68
2023/08/11 13:41:48;;;;;;;3.00;2.30;;;;;;;;;;5051187;28;20230;-67
2023/08/11 13:44:15;;;;;;;2.70;2.07;;;;;;;;;;5053196;28;20202;-68
2023/08/11 13:46:42;;;;;;;3.42;2.00;;;;;;;;;;5052797;28;20211;-68
2023/08/11 13:49:09;;;;;;;2.55;2.08;;;;;;;;;;5052208;28;20203;-68
2023/08/11 13:51:37;;;;;;;3.92;2.45;;;;;;;;;;5052528;28;20234;-68
2023/08/11 13:54:05;;;;;;;3.10;2.13;;;;;;;;;;5050413;28;20201;-68
2023/08/11 13:56:34;;;;;;;3.22;2.00;;;;;;;;;;5051182;28;20281;-68
2023/08/11 13:59:01;;;;;;;4.13;2.25;;;;;;;;;;5047841;28;20726;-67
2023/08/11 14:01:28;;;;;;;3.03;2.05;;;;;;;;;;5047720;28;20215;-68
2023/08/11 14:03:56;;;;;;;3.10;2.60;;;;;;;;;;5049288;28;20198;-68
2023/08/11 14:06:23;;;;;;;2.33;1.98;;;;;;;;;;5027507;28;20249;-67
2023/08/11 14:08:50;;;;;;;2.92;2.10;;;;;;;;;;5049221;28;20191;-68
2023/08/11 14:11:22;;;;;;;2.50;2.15;;;;;;;;;;5049525;28;20261;-68
2023/08/11 14:13:50;;;;;;;3.55;2.20;;;;;;;;;;5050404;28;20199;-68
2023/08/11 14:16:18;;;;;;;2.80;1.92;;;;;;;;;;5048735;28;20558;-69
2023/08/11 14:18:45;;;;;;;3.97;2.40;;;;;;;;;;5033198;28;20203;-68
2023/08/11 14:21:12;;;;;;;3.15;2.35;;;;;;;;;;5050290;28;20218;-68
2023/08/11 14:23:40;;;;;;;3.45;2.35;;;;;;;;;;5049936;28;20218;-68
2023/08/11 14:26:07;;;;;;;3.03;2.13;;;;;;;;;;5048012;28;20298;-68
2023/08/11 14:28:34;;;;;;;3.17;2.60;;;;;;;;;;5047676;28;20597;-68
2023/08/11 14:31:02;;;;;;;3.63;2.50;;;;;;;;;;5050564;28;20249;-68
2023/08/11 14:33:29;;;;;;;2.50;2.13;;;;;;;;;;5050020;28;20626;-68
2023/08/11 14:35:57;;;;;;;2.47;2.05;;;;;;;;;;5049776;28;20586;-68
2023/08/11 14:38:24;;;;;;;2.92;2.30;;;;;;;;;;5050786;28;20206;-69
2023/08/11 14:40:51;;;;;;;2.38;1.92;;;;;;;;;;5050482;28;20676;-68
2023/08/11 14:43:18;;;;;;;3.95;2.10;;;;;;;;;;5049085;28;20226;-68
2023/08/11 14:45:46;;;;;;;3.95;2.95;;;;;;;;;;5049578;28;20192;-68